sensor_id;sensor_type;location;lat;lon;timestamp;P1;durP1;ratioP1;P2;durP2;ratioP2
24273;SDS011;12392;42.678;23.380;2023-03-13T00:01:26;5.57;;;2.90;;
24273;SDS011;12392;42.678;23.380;2023-03-13T00:03:54;5.40;;;3.28;;
24273;SDS011;12392;42.678;23.380;2023-03-13T00:06:20;4.07;;;3.20;;
24273;SDS011;12392;42.678;23.380;2023-03-13T00:08:46;5.78;;;3.00;;
24273;SDS011;12392;42.678;23.380;2023-03-13T00:11:13;5.93;;;2.75;;
24273;SDS011;12392;42.678;23.380;2023-03-13T00:13:39;4.38;;;3.38;;
24273;SDS011;12392;42.678;23.380;2023-03-13T00:16:09;4.60;;;2.92;;
24273;SDS011;12392;42.678;23.380;2023-03-13T00:18:37;5.30;;;3.35;;
24273;SDS011;12392;42.678;23.380;2023-03-13T00:21:03;5.55;;;2.60;;
24273;SDS011;12392;42.678;23.380;2023-03-13T00:23:33;3.97;;;2.42;;
24273;SDS011;12392;42.678;23.380;2023-03-13T00:26:01;4.25;;;2.80;;
24273;SDS011;12392;42.678;23.380;2023-03-13T00:28:30;4.25;;;2.60;;
24273;SDS011;12392;42.678;23.380;2023-03-13T00:31:15;4.82;;;3.00;;
24273;SDS011;12392;42.678;23.380;2023-03-13T00:33:43;5.90;;;2.90;;
24273;SDS011;12392;42.678;23.380;2023-03-13T00:36:11;6.22;;;2.67;;
24273;SDS011;12392;42.678;23.380;2023-03-13T00:38:39;4.68;;;2.67;;
24273;SDS011;12392;42.678;23.380;2023-03-13T00:41:09;5.85;;;3.20;;
24273;SDS011;12392;42.678;23.380;2023-03-13T00:43:39;4.60;;;2.15;;
24273;SDS011;12392;42.678;23.380;2023-03-13T00:46:06;5.63;;;3.13;;
24273;SDS011;12392;42.678;23.380;2023-03-13T00:48:32;5.22;;;3.00;;
24273;SDS011;12392;42.678;23.380;2023-03-13T00:50:57;7.63;;;2.80;;
24273;SDS011;12392;42.678;23.380;2023-03-13T00:53:23;4.00;;;2.85;;
24273;SDS011;12392;42.678;23.380;2023-03-13T00:55:59;4.03;;;2.25;;
24273;SDS011;12392;42.678;23.380;2023-03-13T00:58:27;4.43;;;2.53;;
24273;SDS011;12392;42.678;23.380;2023-03-13T01:00:54;3.30;;;2.35;;
24273;SDS011;12392;42.678;23.380;2023-03-13T01:03:21;4.43;;;2.65;;
24273;SDS011;12392;42.678;23.380;2023-03-13T01:05:58;4.47;;;2.60;;
24273;SDS011;12392;42.678;23.380;2023-03-13T01:08:25;4.80;;;2.40;;
24273;SDS011;12392;42.678;23.380;2023-03-13T01:10:56;3.05;;;2.72;;
24273;SDS011;12392;42.678;23.380;2023-03-13T01:13:29;7.68;;;2.40;;
24273;SDS011;12392;42.678;23.380;2023-03-13T01:15:57;3.50;;;2.40;;
24273;SDS011;12392;42.678;23.380;2023-03-13T01:18:30;5.13;;;3.20;;
24273;SDS011;12392;42.678;23.380;2023-03-13T01:20:56;5.22;;;2.53;;
24273;SDS011;12392;42.678;23.380;2023-03-13T01:23:22;7.63;;;2.33;;
24273;SDS011;12392;42.678;23.380;2023-03-13T01:25:47;7.53;;;3.15;;
24273;SDS011;12392;42.678;23.380;2023-03-13T01:28:13;5.75;;;4.28;;
24273;SDS011;12392;42.678;23.380;2023-03-13T01:30:38;10.45;;;4.35;;
24273;SDS011;12392;42.678;23.380;2023-03-13T01:33:04;9.05;;;4.93;;
24273;SDS011;12392;42.678;23.380;2023-03-13T01:35:30;14.65;;;5.95;;
24273;SDS011;12392;42.678;23.380;2023-03-13T01:37:56;10.02;;;5.30;;
24273;SDS011;12392;42.678;23.380;2023-03-13T01:40:21;13.70;;;5.88;;
24273;SDS011;12392;42.678;23.380;2023-03-13T01:42:48;9.07;;;5.03;;
24273;SDS011;12392;42.678;23.380;2023-03-13T01:48:14;10.57;;;4.72;;
24273;SDS011;12392;42.678;23.380;2023-03-13T01:50:40;11.25;;;5.25;;
24273;SDS011;12392;42.678;23.380;2023-03-13T01:53:06;12.50;;;6.50;;
24273;SDS011;12392;42.678;23.380;2023-03-13T01:55:31;14.25;;;6.57;;
24273;SDS011;12392;42.678;23.380;2023-03-13T01:57:58;15.90;;;8.90;;
24273;SDS011;12392;42.678;23.380;2023-03-13T02:00:26;19.58;;;9.52;;
24273;SDS011;12392;42.678;23.380;2023-03-13T02:02:54;11.00;;;7.30;;
24273;SDS011;12392;42.678;23.380;2023-03-13T02:05:23;20.02;;;9.32;;
24273;SDS011;12392;42.678;23.380;2023-03-13T02:07:52;20.45;;;9.50;;
24273;SDS011;12392;42.678;23.380;2023-03-13T02:10:28;16.23;;;9.77;;
24273;SDS011;12392;42.678;23.380;2023-03-13T02:12:55;19.85;;;10.32;;
24273;SDS011;12392;42.678;23.380;2023-03-13T02:15:22;19.80;;;10.77;;
24273;SDS011;12392;42.678;23.380;2023-03-13T02:17:49;23.25;;;9.85;;
24273;SDS011;12392;42.678;23.380;2023-03-13T02:20:16;18.27;;;9.07;;
24273;SDS011;12392;42.678;23.380;2023-03-13T02:28:29;16.30;;;8.85;;
24273;SDS011;12392;42.678;23.380;2023-03-13T02:30:59;20.20;;;8.93;;
24273;SDS011;12392;42.678;23.380;2023-03-13T02:33:25;19.42;;;10.07;;
24273;SDS011;12392;42.678;23.380;2023-03-13T02:35:52;18.00;;;9.40;;
24273;SDS011;12392;42.678;23.380;2023-03-13T02:38:20;16.23;;;8.68;;
24273;SDS011;12392;42.678;23.380;2023-03-13T02:40:48;14.77;;;8.70;;
24273;SDS011;12392;42.678;23.380;2023-03-13T02:43:16;17.08;;;8.25;;
24273;SDS011;12392;42.678;23.380;2023-03-13T02:46:05;17.13;;;9.30;;
24273;SDS011;12392;42.678;23.380;2023-03-13T02:51:08;18.83;;;9.10;;
24273;SDS011;12392;42.678;23.380;2023-03-13T02:53:37;18.05;;;9.38;;
24273;SDS011;12392;42.678;23.380;2023-03-13T02:56:03;16.73;;;9.50;;
24273;SDS011;12392;42.678;23.380;2023-03-13T02:58:39;22.02;;;9.50;;
24273;SDS011;12392;42.678;23.380;2023-03-13T03:01:06;21.67;;;11.25;;
24273;SDS011;12392;42.678;23.380;2023-03-13T03:03:33;33.40;;;12.77;;
24273;SDS011;12392;42.678;23.380;2023-03-13T03:06:00;30.95;;;13.07;;
24273;SDS011;12392;42.678;23.380;2023-03-13T03:08:26;24.25;;;12.07;;
24273;SDS011;12392;42.678;23.380;2023-03-13T03:10:52;28.33;;;12.27;;
24273;SDS011;12392;42.678;23.380;2023-03-13T03:13:17;34.28;;;13.48;;
24273;SDS011;12392;42.678;23.380;2023-03-13T03:15:43;18.10;;;9.77;;
24273;SDS011;12392;42.678;23.380;2023-03-13T03:18:08;17.05;;;9.20;;
24273;SDS011;12392;42.678;23.380;2023-03-13T03:20:35;23.77;;;10.40;;
24273;SDS011;12392;42.678;23.380;2023-03-13T03:23:00;22.40;;;9.38;;
24273;SDS011;12392;42.678;23.380;2023-03-13T03:25:26;24.13;;;10.75;;
24273;SDS011;12392;42.678;23.380;2023-03-13T03:27:52;20.27;;;9.82;;
24273;SDS011;12392;42.678;23.380;2023-03-13T03:30:17;19.42;;;9.13;;
24273;SDS011;12392;42.678;23.380;2023-03-13T03:32:43;23.23;;;10.75;;
24273;SDS011;12392;42.678;23.380;2023-03-13T03:35:09;19.15;;;9.93;;
24273;SDS011;12392;42.678;23.380;2023-03-13T03:37:34;18.65;;;9.63;;
24273;SDS011;12392;42.678;23.380;2023-03-13T03:40:00;20.00;;;9.13;;
24273;SDS011;12392;42.678;23.380;2023-03-13T03:42:26;15.95;;;7.72;;
24273;SDS011;12392;42.678;23.380;2023-03-13T03:44:51;17.52;;;8.20;;
24273;SDS011;12392;42.678;23.380;2023-03-13T03:47:17;16.17;;;8.43;;
24273;SDS011;12392;42.678;23.380;2023-03-13T03:49:43;16.13;;;8.32;;
24273;SDS011;12392;42.678;23.380;2023-03-13T03:52:08;20.77;;;8.70;;
24273;SDS011;12392;42.678;23.380;2023-03-13T03:54:34;19.38;;;9.95;;
24273;SDS011;12392;42.678;23.380;2023-03-13T03:57:00;13.57;;;8.10;;
24273;SDS011;12392;42.678;23.380;2023-03-13T03:59:25;17.13;;;8.63;;
24273;SDS011;12392;42.678;23.380;2023-03-13T04:01:51;15.70;;;8.23;;
24273;SDS011;12392;42.678;23.380;2023-03-13T04:04:16;17.77;;;9.73;;
24273;SDS011;12392;42.678;23.380;2023-03-13T04:06:42;17.48;;;10.10;;
24273;SDS011;12392;42.678;23.380;2023-03-13T04:09:08;17.13;;;8.88;;
24273;SDS011;12392;42.678;23.380;2023-03-13T04:11:33;17.67;;;8.13;;
24273;SDS011;12392;42.678;23.380;2023-03-13T04:13:59;15.48;;;8.48;;
24273;SDS011;12392;42.678;23.380;2023-03-13T04:16:25;17.95;;;9.98;;
24273;SDS011;12392;42.678;23.380;2023-03-13T04:18:50;14.20;;;8.10;;
24273;SDS011;12392;42.678;23.380;2023-03-13T04:21:16;14.82;;;8.85;;
24273;SDS011;12392;42.678;23.380;2023-03-13T04:23:42;16.33;;;9.07;;
24273;SDS011;12392;42.678;23.380;2023-03-13T04:26:07;24.98;;;8.82;;
24273;SDS011;12392;42.678;23.380;2023-03-13T04:28:33;21.90;;;10.23;;
24273;SDS011;12392;42.678;23.380;2023-03-13T04:30:59;19.08;;;8.27;;
24273;SDS011;12392;42.678;23.380;2023-03-13T04:33:25;13.88;;;7.85;;
24273;SDS011;12392;42.678;23.380;2023-03-13T04:35:51;19.98;;;9.80;;
24273;SDS011;12392;42.678;23.380;2023-03-13T04:38:17;18.88;;;9.73;;
24273;SDS011;12392;42.678;23.380;2023-03-13T04:40:42;15.88;;;9.80;;
24273;SDS011;12392;42.678;23.380;2023-03-13T04:43:08;17.35;;;9.32;;
24273;SDS011;12392;42.678;23.380;2023-03-13T04:45:34;20.98;;;9.73;;
24273;SDS011;12392;42.678;23.380;2023-03-13T04:47:59;19.20;;;9.15;;
24273;SDS011;12392;42.678;23.380;2023-03-13T04:50:25;20.63;;;10.20;;
24273;SDS011;12392;42.678;23.380;2023-03-13T04:52:51;21.73;;;10.75;;
24273;SDS011;12392;42.678;23.380;2023-03-13T04:55:16;19.27;;;9.77;;
24273;SDS011;12392;42.678;23.380;2023-03-13T04:57:42;19.50;;;9.85;;
24273;SDS011;12392;42.678;23.380;2023-03-13T05:00:08;20.95;;;10.30;;
24273;SDS011;12392;42.678;23.380;2023-03-13T05:02:35;23.67;;;9.60;;
24273;SDS011;12392;42.678;23.380;2023-03-13T05:05:01;20.80;;;9.48;;
24273;SDS011;12392;42.678;23.380;2023-03-13T05:07:26;19.63;;;9.15;;
24273;SDS011;12392;42.678;23.380;2023-03-13T05:09:52;14.77;;;8.20;;
24273;SDS011;12392;42.678;23.380;2023-03-13T05:12:18;18.15;;;9.77;;
24273;SDS011;12392;42.678;23.380;2023-03-13T05:14:43;16.98;;;9.55;;
24273;SDS011;12392;42.678;23.380;2023-03-13T05:17:09;20.75;;;8.98;;
24273;SDS011;12392;42.678;23.380;2023-03-13T05:19:36;16.13;;;8.50;;
24273;SDS011;12392;42.678;23.380;2023-03-13T05:22:02;16.42;;;8.40;;
24273;SDS011;12392;42.678;23.380;2023-03-13T05:24:28;16.83;;;8.80;;
24273;SDS011;12392;42.678;23.380;2023-03-13T05:26:53;22.13;;;11.18;;
24273;SDS011;12392;42.678;23.380;2023-03-13T05:29:19;42.67;;;18.67;;
24273;SDS011;12392;42.678;23.380;2023-03-13T05:31:45;40.53;;;18.33;;
24273;SDS011;12392;42.678;23.380;2023-03-13T05:34:11;36.05;;;17.63;;
24273;SDS011;12392;42.678;23.380;2023-03-13T05:36:36;35.08;;;16.00;;
24273;SDS011;12392;42.678;23.380;2023-03-13T05:39:02;39.00;;;17.10;;
24273;SDS011;12392;42.678;23.380;2023-03-13T05:41:28;53.13;;;21.92;;
24273;SDS011;12392;42.678;23.380;2023-03-13T05:43:53;33.03;;;16.27;;
24273;SDS011;12392;42.678;23.380;2023-03-13T05:46:19;39.00;;;18.05;;
24273;SDS011;12392;42.678;23.380;2023-03-13T05:48:45;52.13;;;25.67;;
24273;SDS011;12392;42.678;23.380;2023-03-13T05:51:11;38.15;;;18.63;;
24273;SDS011;12392;42.678;23.380;2023-03-13T05:53:37;33.53;;;15.88;;
24273;SDS011;12392;42.678;23.380;2023-03-13T05:56:03;23.75;;;12.38;;
24273;SDS011;12392;42.678;23.380;2023-03-13T05:58:28;22.58;;;10.63;;
24273;SDS011;12392;42.678;23.380;2023-03-13T06:00:54;28.08;;;11.25;;
24273;SDS011;12392;42.678;23.380;2023-03-13T06:03:20;31.90;;;15.43;;
24273;SDS011;12392;42.678;23.380;2023-03-13T06:05:45;27.15;;;13.07;;
24273;SDS011;12392;42.678;23.380;2023-03-13T06:08:11;18.20;;;9.30;;
24273;SDS011;12392;42.678;23.380;2023-03-13T06:10:37;21.83;;;11.00;;
24273;SDS011;12392;42.678;23.380;2023-03-13T06:13:02;18.70;;;9.10;;
24273;SDS011;12392;42.678;23.380;2023-03-13T06:15:28;16.73;;;9.00;;
24273;SDS011;12392;42.678;23.380;2023-03-13T06:17:54;13.50;;;8.75;;
24273;SDS011;12392;42.678;23.380;2023-03-13T06:20:19;16.73;;;8.80;;
24273;SDS011;12392;42.678;23.380;2023-03-13T06:22:46;19.35;;;10.65;;
24273;SDS011;12392;42.678;23.380;2023-03-13T06:25:12;18.98;;;10.38;;
24273;SDS011;12392;42.678;23.380;2023-03-13T06:27:37;19.27;;;10.13;;
24273;SDS011;12392;42.678;23.380;2023-03-13T06:30:05;23.33;;;11.20;;
24273;SDS011;12392;42.678;23.380;2023-03-13T06:32:33;19.15;;;8.85;;
24273;SDS011;12392;42.678;23.380;2023-03-13T06:34:58;19.98;;;9.95;;
24273;SDS011;12392;42.678;23.380;2023-03-13T06:37:24;20.42;;;10.10;;
24273;SDS011;12392;42.678;23.380;2023-03-13T06:39:50;16.50;;;8.38;;
24273;SDS011;12392;42.678;23.380;2023-03-13T06:42:16;13.90;;;7.78;;
24273;SDS011;12392;42.678;23.380;2023-03-13T06:44:41;14.80;;;8.25;;
24273;SDS011;12392;42.678;23.380;2023-03-13T06:47:08;15.15;;;8.23;;
24273;SDS011;12392;42.678;23.380;2023-03-13T06:49:34;15.82;;;6.97;;
24273;SDS011;12392;42.678;23.380;2023-03-13T06:52:00;15.93;;;7.63;;
24273;SDS011;12392;42.678;23.380;2023-03-13T06:54:28;12.80;;;6.72;;
24273;SDS011;12392;42.678;23.380;2023-03-13T06:56:54;15.50;;;8.07;;
24273;SDS011;12392;42.678;23.380;2023-03-13T06:59:21;14.13;;;6.68;;
24273;SDS011;12392;42.678;23.380;2023-03-13T07:01:46;16.40;;;7.82;;
24273;SDS011;12392;42.678;23.380;2023-03-13T07:04:12;16.15;;;7.82;;
24273;SDS011;12392;42.678;23.380;2023-03-13T07:06:38;14.55;;;7.90;;
24273;SDS011;12392;42.678;23.380;2023-03-13T07:09:04;12.45;;;7.68;;
24273;SDS011;12392;42.678;23.380;2023-03-13T07:11:30;14.88;;;8.70;;
24273;SDS011;12392;42.678;23.380;2023-03-13T07:13:56;19.75;;;9.27;;
24273;SDS011;12392;42.678;23.380;2023-03-13T07:16:25;19.80;;;9.00;;
24273;SDS011;12392;42.678;23.380;2023-03-13T07:18:51;17.85;;;8.38;;
24273;SDS011;12392;42.678;23.380;2023-03-13T07:21:17;12.88;;;8.20;;
24273;SDS011;12392;42.678;23.380;2023-03-13T07:23:43;13.93;;;7.95;;
24273;SDS011;12392;42.678;23.380;2023-03-13T07:26:10;14.65;;;8.15;;
24273;SDS011;12392;42.678;23.380;2023-03-13T07:28:37;19.20;;;8.15;;
24273;SDS011;12392;42.678;23.380;2023-03-13T07:31:07;13.55;;;7.55;;
24273;SDS011;12392;42.678;23.380;2023-03-13T07:33:35;19.73;;;6.47;;
24273;SDS011;12392;42.678;23.380;2023-03-13T07:36:01;12.65;;;6.13;;
24273;SDS011;12392;42.678;23.380;2023-03-13T07:38:27;17.77;;;7.25;;
24273;SDS011;12392;42.678;23.380;2023-03-13T07:40:54;10.90;;;7.05;;
24273;SDS011;12392;42.678;23.380;2023-03-13T07:43:21;10.90;;;6.25;;
24273;SDS011;12392;42.678;23.380;2023-03-13T07:48:24;12.68;;;6.63;;
24273;SDS011;12392;42.678;23.380;2023-03-13T07:50:53;40.10;;;17.50;;
24273;SDS011;12392;42.678;23.380;2023-03-13T07:53:19;15.57;;;6.93;;
24273;SDS011;12392;42.678;23.380;2023-03-13T07:55:54;10.88;;;6.60;;
24273;SDS011;12392;42.678;23.380;2023-03-13T07:58:22;13.13;;;6.47;;
24273;SDS011;12392;42.678;23.380;2023-03-13T08:00:48;12.63;;;6.25;;
24273;SDS011;12392;42.678;23.380;2023-03-13T08:03:15;11.35;;;6.57;;
24273;SDS011;12392;42.678;23.380;2023-03-13T08:05:41;12.55;;;6.75;;
24273;SDS011;12392;42.678;23.380;2023-03-13T08:08:07;11.48;;;6.07;;
24273;SDS011;12392;42.678;23.380;2023-03-13T08:10:32;8.82;;;5.68;;
24273;SDS011;12392;42.678;23.380;2023-03-13T08:12:58;10.40;;;5.90;;
24273;SDS011;12392;42.678;23.380;2023-03-13T08:15:27;13.48;;;6.78;;
24273;SDS011;12392;42.678;23.380;2023-03-13T08:20:22;10.32;;;6.72;;
24273;SDS011;12392;42.678;23.380;2023-03-13T08:22:48;9.77;;;6.50;;
24273;SDS011;12392;42.678;23.380;2023-03-13T08:25:14;9.02;;;6.32;;
24273;SDS011;12392;42.678;23.380;2023-03-13T08:27:41;12.52;;;6.57;;
24273;SDS011;12392;42.678;23.380;2023-03-13T08:30:09;10.05;;;6.22;;
24273;SDS011;12392;42.678;23.380;2023-03-13T08:32:35;10.40;;;7.05;;
24273;SDS011;12392;42.678;23.380;2023-03-13T08:35:01;16.23;;;7.32;;
24273;SDS011;12392;42.678;23.380;2023-03-13T08:37:28;12.68;;;7.53;;
24273;SDS011;12392;42.678;23.380;2023-03-13T08:39:54;10.77;;;8.00;;
24273;SDS011;12392;42.678;23.380;2023-03-13T08:42:21;10.82;;;7.30;;
24273;SDS011;12392;42.678;23.380;2023-03-13T08:44:47;13.02;;;6.85;;
24273;SDS011;12392;42.678;23.380;2023-03-13T08:47:13;12.60;;;6.82;;
24273;SDS011;12392;42.678;23.380;2023-03-13T08:49:39;18.60;;;7.18;;
24273;SDS011;12392;42.678;23.380;2023-03-13T08:52:05;12.27;;;6.30;;
24273;SDS011;12392;42.678;23.380;2023-03-13T08:54:31;13.57;;;6.85;;
24273;SDS011;12392;42.678;23.380;2023-03-13T08:56:57;16.02;;;6.70;;
24273;SDS011;12392;42.678;23.380;2023-03-13T08:59:24;11.07;;;6.78;;
24273;SDS011;12392;42.678;23.380;2023-03-13T09:01:50;11.73;;;7.00;;
24273;SDS011;12392;42.678;23.380;2023-03-13T09:04:17;11.60;;;5.90;;
24273;SDS011;12392;42.678;23.380;2023-03-13T09:06:43;9.73;;;6.20;;
24273;SDS011;12392;42.678;23.380;2023-03-13T09:09:09;9.50;;;6.28;;
24273;SDS011;12392;42.678;23.380;2023-03-13T09:11:37;9.85;;;5.50;;
24273;SDS011;12392;42.678;23.380;2023-03-13T09:14:03;10.05;;;6.28;;
24273;SDS011;12392;42.678;23.380;2023-03-13T09:16:30;8.75;;;5.70;;
24273;SDS011;12392;42.678;23.380;2023-03-13T09:18:57;9.73;;;6.03;;
24273;SDS011;12392;42.678;23.380;2023-03-13T09:21:24;14.68;;;6.25;;
24273;SDS011;12392;42.678;23.380;2023-03-13T09:23:51;7.30;;;5.57;;
24273;SDS011;12392;42.678;23.380;2023-03-13T09:26:18;8.48;;;5.82;;
24273;SDS011;12392;42.678;23.380;2023-03-13T09:28:44;10.52;;;4.97;;
24273;SDS011;12392;42.678;23.380;2023-03-13T09:31:17;10.05;;;5.78;;
24273;SDS011;12392;42.678;23.380;2023-03-13T09:33:45;11.05;;;5.95;;
24273;SDS011;12392;42.678;23.380;2023-03-13T09:36:12;10.35;;;6.38;;
24273;SDS011;12392;42.678;23.380;2023-03-13T09:38:38;9.25;;;5.78;;
24273;SDS011;12392;42.678;23.380;2023-03-13T09:41:10;8.32;;;6.25;;
24273;SDS011;12392;42.678;23.380;2023-03-13T09:43:45;10.43;;;6.28;;
24273;SDS011;12392;42.678;23.380;2023-03-13T09:49:11;10.10;;;6.38;;
24273;SDS011;12392;42.678;23.380;2023-03-13T09:51:39;10.52;;;6.65;;
24273;SDS011;12392;42.678;23.380;2023-03-13T09:56:46;8.48;;;5.95;;
24273;SDS011;12392;42.678;23.380;2023-03-13T09:59:17;11.90;;;6.82;;
24273;SDS011;12392;42.678;23.380;2023-03-13T10:01:46;12.50;;;6.75;;
24273;SDS011;12392;42.678;23.380;2023-03-13T10:06:46;10.25;;;6.18;;
24273;SDS011;12392;42.678;23.380;2023-03-13T10:09:23;11.32;;;6.60;;
24273;SDS011;12392;42.678;23.380;2023-03-13T10:11:57;10.27;;;6.30;;
24273;SDS011;12392;42.678;23.380;2023-03-13T10:17:52;14.07;;;6.95;;
24273;SDS011;12392;42.678;23.380;2023-03-13T10:20:26;13.40;;;6.15;;
24273;SDS011;12392;42.678;23.380;2023-03-13T10:25:31;10.07;;;6.10;;
24273;SDS011;12392;42.678;23.380;2023-03-13T10:30:29;9.95;;;6.13;;
24273;SDS011;12392;42.678;23.380;2023-03-13T10:35:33;9.30;;;5.55;;
24273;SDS011;12392;42.678;23.380;2023-03-13T10:38:19;10.43;;;6.32;;
24273;SDS011;12392;42.678;23.380;2023-03-13T10:43:51;12.68;;;6.13;;
24273;SDS011;12392;42.678;23.380;2023-03-13T10:46:28;14.00;;;5.88;;
24273;SDS011;12392;42.678;23.380;2023-03-13T10:48:56;10.25;;;5.88;;
24273;SDS011;12392;42.678;23.380;2023-03-13T10:51:28;11.60;;;6.43;;
24273;SDS011;12392;42.678;23.380;2023-03-13T10:53:59;9.02;;;6.25;;
24273;SDS011;12392;42.678;23.380;2023-03-13T10:56:28;9.13;;;5.78;;
24273;SDS011;12392;42.678;23.380;2023-03-13T10:58:54;7.95;;;5.88;;
24273;SDS011;12392;42.678;23.380;2023-03-13T11:01:24;10.75;;;6.07;;
24273;SDS011;12392;42.678;23.380;2023-03-13T11:06:50;9.48;;;6.45;;
24273;SDS011;12392;42.678;23.380;2023-03-13T11:09:19;10.63;;;5.60;;
24273;SDS011;12392;42.678;23.380;2023-03-13T11:14:15;11.40;;;5.75;;
24273;SDS011;12392;42.678;23.380;2023-03-13T11:16:46;7.80;;;6.03;;
24273;SDS011;12392;42.678;23.380;2023-03-13T11:19:25;8.57;;;5.80;;
24273;SDS011;12392;42.678;23.380;2023-03-13T11:25:17;11.63;;;6.05;;
24273;SDS011;12392;42.678;23.380;2023-03-13T11:28:10;7.30;;;4.63;;
24273;SDS011;12392;42.678;23.380;2023-03-13T11:36:01;12.82;;;6.32;;
24273;SDS011;12392;42.678;23.380;2023-03-13T11:46:24;6.00;;;4.13;;
24273;SDS011;12392;42.678;23.380;2023-03-13T11:49:10;6.90;;;4.78;;
24273;SDS011;12392;42.678;23.380;2023-03-13T11:54:35;6.72;;;5.13;;
24273;SDS011;12392;42.678;23.380;2023-03-13T11:57:16;9.20;;;5.43;;
24273;SDS011;12392;42.678;23.380;2023-03-13T12:02:17;10.00;;;5.05;;
24273;SDS011;12392;42.678;23.380;2023-03-13T12:04:46;8.20;;;5.28;;
24273;SDS011;12392;42.678;23.380;2023-03-13T12:09:43;7.93;;;5.70;;
24273;SDS011;12392;42.678;23.380;2023-03-13T12:17:59;9.32;;;5.85;;
24273;SDS011;12392;42.678;23.380;2023-03-13T12:20:50;8.32;;;5.25;;
24273;SDS011;12392;42.678;23.380;2023-03-13T12:23:36;8.45;;;5.57;;
24273;SDS011;12392;42.678;23.380;2023-03-13T12:31:25;8.45;;;4.97;;
24273;SDS011;12392;42.678;23.380;2023-03-13T12:37:19;9.02;;;5.47;;
24273;SDS011;12392;42.678;23.380;2023-03-13T12:40:15;7.00;;;4.97;;
24273;SDS011;12392;42.678;23.380;2023-03-13T12:42:55;7.73;;;5.23;;
24273;SDS011;12392;42.678;23.380;2023-03-13T12:45:23;6.80;;;4.50;;
24273;SDS011;12392;42.678;23.380;2023-03-13T12:47:55;9.40;;;5.15;;
24273;SDS011;12392;42.678;23.380;2023-03-13T13:01:38;12.20;;;6.97;;
24273;SDS011;12392;42.678;23.380;2023-03-13T13:04:11;19.85;;;10.50;;
24273;SDS011;12392;42.678;23.380;2023-03-13T13:09:16;10.48;;;5.50;;
24273;SDS011;12392;42.678;23.380;2023-03-13T13:11:55;15.60;;;5.88;;
24273;SDS011;12392;42.678;23.380;2023-03-13T13:16:51;10.80;;;6.85;;
24273;SDS011;12392;42.678;23.380;2023-03-13T13:25:00;29.20;;;15.73;;
24273;SDS011;12392;42.678;23.380;2023-03-13T13:35:28;13.27;;;7.30;;
24273;SDS011;12392;42.678;23.380;2023-03-13T13:43:23;11.25;;;7.22;;
24273;SDS011;12392;42.678;23.380;2023-03-13T13:46:00;10.38;;;6.53;;
24273;SDS011;12392;42.678;23.380;2023-03-13T13:48:36;11.35;;;7.22;;
24273;SDS011;12392;42.678;23.380;2023-03-13T13:53:55;11.95;;;7.10;;
24273;SDS011;12392;42.678;23.380;2023-03-13T13:59:35;13.00;;;7.35;;
24273;SDS011;12392;42.678;23.380;2023-03-13T14:04:47;13.18;;;7.18;;
24273;SDS011;12392;42.678;23.380;2023-03-13T14:07:20;14.73;;;7.30;;
24273;SDS011;12392;42.678;23.380;2023-03-13T14:17:42;11.63;;;6.65;;
24273;SDS011;12392;42.678;23.380;2023-03-13T14:22:51;11.50;;;6.13;;
24273;SDS011;12392;42.678;23.380;2023-03-13T14:25:18;10.07;;;6.72;;
24273;SDS011;12392;42.678;23.380;2023-03-13T14:27:45;13.70;;;6.82;;
24273;SDS011;12392;42.678;23.380;2023-03-13T14:30:13;13.93;;;6.25;;
24273;SDS011;12392;42.678;23.380;2023-03-13T14:32:41;8.88;;;5.90;;
24273;SDS011;12392;42.678;23.380;2023-03-13T14:35:08;9.85;;;5.97;;
24273;SDS011;12392;42.678;23.380;2023-03-13T14:37:35;11.75;;;6.35;;
24273;SDS011;12392;42.678;23.380;2023-03-13T14:42:48;8.70;;;5.63;;
24273;SDS011;12392;42.678;23.380;2023-03-13T14:45:19;11.52;;;7.05;;
24273;SDS011;12392;42.678;23.380;2023-03-13T14:47:50;11.40;;;6.22;;
24273;SDS011;12392;42.678;23.380;2023-03-13T14:50:17;10.40;;;6.22;;
24273;SDS011;12392;42.678;23.380;2023-03-13T14:52:54;12.68;;;6.50;;
24273;SDS011;12392;42.678;23.380;2023-03-13T14:55:25;13.63;;;6.75;;
24273;SDS011;12392;42.678;23.380;2023-03-13T15:08:31;8.50;;;5.28;;
24273;SDS011;12392;42.678;23.380;2023-03-13T15:10:58;9.15;;;5.68;;
24273;SDS011;12392;42.678;23.380;2023-03-13T15:13:26;11.20;;;6.63;;
24273;SDS011;12392;42.678;23.380;2023-03-13T15:15:57;12.05;;;6.28;;
24273;SDS011;12392;42.678;23.380;2023-03-13T15:18:27;15.95;;;6.35;;
24273;SDS011;12392;42.678;23.380;2023-03-13T15:20:55;9.40;;;6.85;;
24273;SDS011;12392;42.678;23.380;2023-03-13T15:23:37;16.77;;;6.63;;
24273;SDS011;12392;42.678;23.380;2023-03-13T15:26:03;11.88;;;7.13;;
24273;SDS011;12392;42.678;23.380;2023-03-13T15:28:29;13.85;;;6.90;;
24273;SDS011;12392;42.678;23.380;2023-03-13T15:30:55;10.95;;;6.43;;
24273;SDS011;12392;42.678;23.380;2023-03-13T15:33:22;11.05;;;7.00;;
24273;SDS011;12392;42.678;23.380;2023-03-13T15:35:49;17.13;;;7.78;;
24273;SDS011;12392;42.678;23.380;2023-03-13T15:38:16;13.93;;;7.57;;
24273;SDS011;12392;42.678;23.380;2023-03-13T15:40:51;9.90;;;6.75;;
24273;SDS011;12392;42.678;23.380;2023-03-13T15:43:17;11.43;;;7.47;;
24273;SDS011;12392;42.678;23.380;2023-03-13T15:45:44;15.90;;;6.85;;
24273;SDS011;12392;42.678;23.380;2023-03-13T15:50:57;14.90;;;6.90;;
24273;SDS011;12392;42.678;23.380;2023-03-13T15:53:32;11.32;;;6.78;;
24273;SDS011;12392;42.678;23.380;2023-03-13T15:56:02;15.05;;;7.05;;
24273;SDS011;12392;42.678;23.380;2023-03-13T15:58:41;12.70;;;6.03;;
24273;SDS011;12392;42.678;23.380;2023-03-13T16:01:09;13.55;;;7.15;;
24273;SDS011;12392;42.678;23.380;2023-03-13T16:03:38;15.27;;;7.07;;
24273;SDS011;12392;42.678;23.380;2023-03-13T16:08:39;14.95;;;6.03;;
24273;SDS011;12392;42.678;23.380;2023-03-13T16:11:05;13.23;;;7.10;;
24273;SDS011;12392;42.678;23.380;2023-03-13T16:13:30;11.30;;;7.05;;
24273;SDS011;12392;42.678;23.380;2023-03-13T16:15:57;17.23;;;7.78;;
24273;SDS011;12392;42.678;23.380;2023-03-13T16:18:23;14.35;;;7.97;;
24273;SDS011;12392;42.678;23.380;2023-03-13T16:20:49;16.88;;;8.80;;
24273;SDS011;12392;42.678;23.380;2023-03-13T16:23:15;16.77;;;8.52;;
24273;SDS011;12392;42.678;23.380;2023-03-13T16:25:41;24.58;;;10.63;;
24273;SDS011;12392;42.678;23.380;2023-03-13T16:28:11;22.90;;;10.38;;
24273;SDS011;12392;42.678;23.380;2023-03-13T16:30:37;17.25;;;8.10;;
24273;SDS011;12392;42.678;23.380;2023-03-13T16:33:05;14.60;;;7.70;;
24273;SDS011;12392;42.678;23.380;2023-03-13T16:35:31;12.82;;;7.80;;
24273;SDS011;12392;42.678;23.380;2023-03-13T16:37:57;11.55;;;6.68;;
24273;SDS011;12392;42.678;23.380;2023-03-13T16:40:24;19.45;;;6.88;;
24273;SDS011;12392;42.678;23.380;2023-03-13T16:42:51;13.98;;;6.85;;
24273;SDS011;12392;42.678;23.380;2023-03-13T16:45:17;18.27;;;7.68;;
24273;SDS011;12392;42.678;23.380;2023-03-13T16:47:43;16.05;;;7.53;;
24273;SDS011;12392;42.678;23.380;2023-03-13T16:50:18;18.90;;;7.93;;
24273;SDS011;12392;42.678;23.380;2023-03-13T16:53:00;16.67;;;7.63;;
24273;SDS011;12392;42.678;23.380;2023-03-13T16:55:27;17.55;;;8.20;;
24273;SDS011;12392;42.678;23.380;2023-03-13T16:57:54;17.20;;;9.18;;
24273;SDS011;12392;42.678;23.380;2023-03-13T17:00:21;16.95;;;8.10;;
24273;SDS011;12392;42.678;23.380;2023-03-13T17:02:47;18.55;;;9.40;;
24273;SDS011;12392;42.678;23.380;2023-03-13T17:05:14;18.05;;;10.50;;